createdAt,value
2023-04-04T00:07:10.088Z,67.04
2023-04-04T00:17:14.345Z,67.03
2023-04-04T00:27:20.150Z,67.55
2023-04-04T00:37:24.312Z,67.57
2023-04-04T00:47:32.924Z,67.96
2023-04-04T00:57:39.096Z,68.04
2023-04-04T01:07:44.998Z,68.13
2023-04-04T01:17:52.013Z,68.34
2023-04-04T01:27:57.680Z,68.43
2023-04-04T01:38:15.931Z,68.47
2023-04-04T01:48:22.481Z,68.56
2023-04-04T01:58:28.169Z,68.69
2023-04-04T02:08:34.040Z,68.87
2023-04-04T02:18:40.505Z,68.88
2023-04-04T02:28:46.415Z,69.30
2023-04-04T02:38:52.212Z,69.40
2023-04-04T02:48:57.824Z,69.47
2023-04-04T02:59:03.779Z,69.61
2023-04-04T03:09:09.499Z,69.78
2023-04-04T03:19:15.153Z,69.79
2023-04-04T03:29:21.110Z,70.05
2023-04-04T03:39:30.866Z,70.38
2023-04-04T03:49:36.758Z,70.71
2023-04-04T03:59:42.600Z,71.15
2023-04-04T04:09:48.391Z,71.48
2023-04-04T04:19:54.360Z,71.86
2023-04-04T04:30:00.479Z,72.07
2023-04-04T04:40:08.732Z,72.26
2023-04-04T04:50:16.537Z,72.48
2023-04-04T05:00:23.567Z,72.40
2023-04-04T05:10:30.112Z,72.21
2023-04-04T05:20:36.302Z,72.25
2023-04-04T05:30:42.408Z,69.71
2023-04-04T05:40:48.450Z,66.03
2023-04-04T05:50:54.233Z,56.57
2023-04-04T06:00:59.984Z,49.28
2023-04-04T06:11:05.752Z,44.36
2023-04-04T06:21:11.430Z,42.02
2023-04-04T06:31:17.278Z,42.53
2023-04-04T06:41:23.167Z,43.54
2023-04-04T06:51:29.315Z,45.22
2023-04-04T07:01:38.308Z,45.62
2023-04-04T07:11:47.097Z,45.77
2023-04-04T07:21:53.650Z,46.94
2023-04-04T07:31:59.440Z,44.85
2023-04-04T07:42:07.840Z,47.25
2023-04-04T07:52:13.588Z,48.53
2023-04-04T08:02:19.718Z,49.56
2023-04-04T08:12:30.246Z,49.92
2023-04-04T08:22:37.248Z,49.67
2023-04-04T08:32:44.583Z,50.14
2023-04-04T08:42:53.691Z,49.84
2023-04-04T08:53:03.116Z,48.78
2023-04-04T09:03:16.402Z,49.19
2023-04-04T09:13:22.982Z,49.45
2023-04-04T09:23:28.986Z,50.19
2023-04-04T09:33:35.854Z,50.36
2023-04-04T09:43:41.881Z,49.78
2023-04-04T09:53:50.212Z,49.51
2023-04-04T10:03:59.377Z,49.32
2023-04-04T10:14:08.483Z,49.14
2023-04-04T10:24:14.301Z,48.66
2023-04-04T10:34:26.861Z,48.12
2023-04-04T10:44:35.284Z,47.78
2023-04-04T10:54:42.392Z,47.70
2023-04-04T11:04:48.135Z,47.45
2023-04-04T11:15:11.846Z,46.90
2023-04-04T11:25:39.972Z,46.32
2023-04-04T11:35:52.761Z,45.75
2023-04-04T11:46:11.376Z,46.04
2023-04-04T11:56:20.883Z,45.86
2023-04-04T12:06:27.286Z,46.26
2023-04-04T12:16:33.313Z,46.21
2023-04-04T12:26:41.335Z,46.03
2023-04-04T12:36:49.911Z,46.03
2023-04-04T12:46:57.684Z,46.40
2023-04-04T12:57:05.792Z,46.76
2023-04-04T13:07:25.876Z,47.34
2023-04-04T13:17:45.091Z,47.50
2023-04-04T13:27:50.821Z,47.01
2023-04-04T13:37:57.253Z,46.59
2023-04-04T13:48:04.220Z,46.09
2023-04-04T13:58:10.175Z,45.77
2023-04-04T14:08:16.095Z,45.41
2023-04-04T14:18:22.303Z,46.06
2023-04-04T14:28:28.303Z,46.17
2023-04-04T14:38:34.502Z,45.43
2023-04-04T14:48:40.447Z,46.27
2023-04-04T14:58:46.490Z,46.61
2023-04-04T15:08:52.221Z,46.47
2023-04-04T15:18:58.116Z,46.60
2023-04-04T15:29:04.892Z,46.54
2023-04-04T15:39:11.519Z,46.32
2023-04-04T15:49:17.501Z,46.22
2023-04-04T15:59:23.539Z,46.41
2023-04-04T16:09:29.524Z,46.75
2023-04-04T16:19:36.964Z,46.95
2023-04-04T16:29:46.384Z,47.06
2023-04-04T16:39:52.569Z,47.53
2023-04-04T16:49:58.772Z,47.83
2023-04-04T17:00:06.600Z,48.09
2023-04-04T17:10:14.541Z,48.69
2023-04-04T17:20:20.897Z,49.47
2023-04-04T17:30:26.720Z,50.31
2023-04-04T17:40:46.978Z,50.99
2023-04-04T17:50:53.775Z,52.31
2023-04-04T18:00:59.707Z,53.88
2023-04-04T18:11:06.350Z,54.61
2023-04-04T18:21:12.176Z,55.93
2023-04-04T18:31:18.295Z,56.74
2023-04-04T18:41:24.278Z,58.40
2023-04-04T18:51:29.970Z,59.02
2023-04-04T19:01:36.217Z,59.45
2023-04-04T19:11:43.542Z,60.12
2023-04-04T19:21:49.270Z,60.75
2023-04-04T19:31:56.867Z,61.36
2023-04-04T19:42:06.662Z,61.92
2023-04-04T19:52:13.346Z,62.61
2023-04-04T20:03:00.594Z,62.92
2023-04-04T20:13:07.972Z,63.89
2023-04-04T20:23:15.208Z,63.98
2023-04-04T20:33:36.896Z,63.84
2023-04-04T20:43:45.699Z,64.09
2023-04-04T20:53:51.880Z,64.31
2023-04-04T21:03:59.662Z,64.62
2023-04-04T21:14:06.546Z,64.97
2023-04-04T21:24:13.148Z,65.72
2023-04-04T21:34:21.198Z,66.32
2023-04-04T21:44:27.612Z,66.42
2023-04-04T21:54:33.551Z,67.15
2023-04-04T22:04:39.271Z,67.49
2023-04-04T22:14:45.811Z,68.01
2023-04-04T22:24:51.149Z,68.95
2023-04-04T22:34:57.651Z,69.56
2023-04-04T22:45:03.482Z,70.10
2023-04-04T22:55:10.361Z,70.18
2023-04-04T23:05:17.811Z,70.79
2023-04-04T23:15:23.562Z,71.48
2023-04-04T23:25:28.065Z,72.30
2023-04-04T23:35:33.928Z,73.22
2023-04-04T23:45:40.879Z,74.22
2023-04-04T23:55:46.562Z,75.30
